To NAV CANADA Home Page Login to a new session Search on AWWS site Disclaimer Vers la page française équivalente Tips FAQ What's new on the site To the Forecasts and Observations / NOTAM section To "File a Flight Plan" website Publications and other links Update of the User's profile FIC Telephone Numbers My Weather Data Folder Route Weather Data Regional Weather Data Local Weather Data To the Forecasts and Observations / NOTAM section
Request Generated 04/24/2019 at 16:10:39 UTC . Weather information available at that time is displayed.

METAR/TAF

FORT MCMURRAY/AB    (show WxCam)

METAR CYMM 241600Z AUTO 25006KT 210V270 9SM FEW095 09/M07 A2978 RMK SLP098=
METAR CYMM 241500Z AUTO 24009KT 9SM CLR 06/M07 A2978 RMK SLP100=
METAR CYMM 241400Z AUTO 23007KT 9SM BKN100 05/M06 A2978 RMK SLP098=

TAF CYMM 241239Z 2413/2501 22008KT P6SM SCT080
BECMG 2413/2415 27008KT
FM241800 28012G22KT P6SM SCT100
FM242200 28012KT P6SM SCT100 TEMPO 2422/2501 P6SM VCSH BKN100
RMK FCST BASED ON AUTO OBS. NXT FCST BY 241900Z=
Your time UTC time
Weather data provided by Environment Canada and NAV CANADA